sensor_id;sensor_type;location;lat;lon;timestamp;temperature;humidity
42019;DHT22;27703;51.980;5.848;2024-03-02T00:00:14;8.80;99.90
42019;DHT22;27703;51.980;5.848;2024-03-02T00:02:44;8.80;99.90
42019;DHT22;27703;51.980;5.848;2024-03-02T00:05:11;8.70;99.90
42019;DHT22;27703;51.980;5.848;2024-03-02T00:07:39;8.70;99.90
42019;DHT22;27703;51.980;5.848;2024-03-02T00:10:08;8.80;99.90
42019;DHT22;27703;51.980;5.848;2024-03-02T00:12:40;8.80;99.90
42019;DHT22;27703;51.980;5.848;2024-03-02T00:17:55;8.80;99.90
42019;DHT22;27703;51.980;5.848;2024-03-02T00:20:22;8.80;99.90
42019;DHT22;27703;51.980;5.848;2024-03-02T00:22:49;8.80;99.90
42019;DHT22;27703;51.980;5.848;2024-03-02T00:25:15;8.80;99.90
42019;DHT22;27703;51.980;5.848;2024-03-02T00:27:41;8.80;99.90
42019;DHT22;27703;51.980;5.848;2024-03-02T00:33:17;8.90;99.90
42019;DHT22;27703;51.980;5.848;2024-03-02T00:35:47;8.90;99.90
42019;DHT22;27703;51.980;5.848;2024-03-02T00:38:14;8.90;99.90
42019;DHT22;27703;51.980;5.848;2024-03-02T00:40:44;8.80;99.90
42019;DHT22;27703;51.980;5.848;2024-03-02T00:45:59;8.90;99.90
42019;DHT22;27703;51.980;5.848;2024-03-02T00:48:24;8.80;99.90
42019;DHT22;27703;51.980;5.848;2024-03-02T00:50:52;8.90;99.90
42019;DHT22;27703;51.980;5.848;2024-03-02T00:53:22;8.80;99.90
42019;DHT22;27703;51.980;5.848;2024-03-02T00:55:49;8.80;99.90
42019;DHT22;27703;51.980;5.848;2024-03-02T00:58:14;8.80;99.90
42019;DHT22;27703;51.980;5.848;2024-03-02T01:00:40;8.80;99.90
42019;DHT22;27703;51.980;5.848;2024-03-02T01:03:05;8.80;99.90
42019;DHT22;27703;51.980;5.848;2024-03-02T01:05:31;8.80;99.90
42019;DHT22;27703;51.980;5.848;2024-03-02T01:07:56;8.90;99.90
42019;DHT22;27703;51.980;5.848;2024-03-02T01:10:22;8.90;99.90
42019;DHT22;27703;51.980;5.848;2024-03-02T01:12:47;8.80;99.90
42019;DHT22;27703;51.980;5.848;2024-03-02T01:15:13;8.80;99.90
42019;DHT22;27703;51.980;5.848;2024-03-02T01:17:39;8.90;99.90
42019;DHT22;27703;51.980;5.848;2024-03-02T01:20:07;8.90;99.90
42019;DHT22;27703;51.980;5.848;2024-03-02T01:22:33;8.90;99.90
42019;DHT22;27703;51.980;5.848;2024-03-02T01:24:58;8.90;99.90
42019;DHT22;27703;51.980;5.848;2024-03-02T01:27:24;8.90;99.90
42019;DHT22;27703;51.980;5.848;2024-03-02T01:29:49;8.90;99.90
42019;DHT22;27703;51.980;5.848;2024-03-02T01:32:15;8.90;99.90
42019;DHT22;27703;51.980;5.848;2024-03-02T01:34:41;8.90;99.90
42019;DHT22;27703;51.980;5.848;2024-03-02T01:37:06;8.90;99.90
42019;DHT22;27703;51.980;5.848;2024-03-02T01:39:32;8.80;99.90
42019;DHT22;27703;51.980;5.848;2024-03-02T01:41:57;8.80;99.90
42019;DHT22;27703;51.980;5.848;2024-03-02T01:44:23;8.70;99.90
42019;DHT22;27703;51.980;5.848;2024-03-02T01:46:48;8.70;99.90
42019;DHT22;27703;51.980;5.848;2024-03-02T01:49:14;8.70;99.90
42019;DHT22;27703;51.980;5.848;2024-03-02T01:51:40;8.70;99.90
42019;DHT22;27703;51.980;5.848;2024-03-02T01:54:05;8.70;99.90
42019;DHT22;27703;51.980;5.848;2024-03-02T01:56:31;8.70;99.90
42019;DHT22;27703;51.980;5.848;2024-03-02T01:58:56;8.70;99.90
42019;DHT22;27703;51.980;5.848;2024-03-02T02:01:22;8.70;99.90
42019;DHT22;27703;51.980;5.848;2024-03-02T02:03:47;8.70;99.90
42019;DHT22;27703;51.980;5.848;2024-03-02T02:06:13;8.60;99.90
42019;DHT22;27703;51.980;5.848;2024-03-02T02:08:38;8.60;99.90
42019;DHT22;27703;51.980;5.848;2024-03-02T02:11:04;8.60;99.90
42019;DHT22;27703;51.980;5.848;2024-03-02T02:13:29;8.60;99.90
42019;DHT22;27703;51.980;5.848;2024-03-02T02:15:55;8.60;99.90
42019;DHT22;27703;51.980;5.848;2024-03-02T02:18:20;8.50;99.90
42019;DHT22;27703;51.980;5.848;2024-03-02T02:20:46;8.60;99.90
42019;DHT22;27703;51.980;5.848;2024-03-02T02:23:11;8.50;99.90
42019;DHT22;27703;51.980;5.848;2024-03-02T02:25:38;8.50;99.90
42019;DHT22;27703;51.980;5.848;2024-03-02T02:28:04;8.50;99.90
42019;DHT22;27703;51.980;5.848;2024-03-02T02:30:31;8.50;99.90
42019;DHT22;27703;51.980;5.848;2024-03-02T02:32:58;8.50;99.90
42019;DHT22;27703;51.980;5.848;2024-03-02T02:35:23;8.50;99.90
42019;DHT22;27703;51.980;5.848;2024-03-02T02:37:53;8.50;99.90
42019;DHT22;27703;51.980;5.848;2024-03-02T02:40:19;8.50;99.90
42019;DHT22;27703;51.980;5.848;2024-03-02T02:42:44;8.50;99.90
42019;DHT22;27703;51.980;5.848;2024-03-02T02:45:10;8.50;99.90
42019;DHT22;27703;51.980;5.848;2024-03-02T02:47:38;8.50;99.90
42019;DHT22;27703;51.980;5.848;2024-03-02T02:50:04;8.50;99.90
42019;DHT22;27703;51.980;5.848;2024-03-02T02:52:34;8.50;99.90
42019;DHT22;27703;51.980;5.848;2024-03-02T02:55:05;8.50;99.90
42019;DHT22;27703;51.980;5.848;2024-03-02T02:57:32;8.40;99.90
42019;DHT22;27703;51.980;5.848;2024-03-02T03:00:05;8.40;99.90
42019;DHT22;27703;51.980;5.848;2024-03-02T03:02:38;8.40;99.90
42019;DHT22;27703;51.980;5.848;2024-03-02T03:05:05;8.40;99.90
42019;DHT22;27703;51.980;5.848;2024-03-02T03:07:31;8.40;99.90
42019;DHT22;27703;51.980;5.848;2024-03-02T03:09:57;8.40;99.90
42019;DHT22;27703;51.980;5.848;2024-03-02T03:12:22;8.40;99.90
42019;DHT22;27703;51.980;5.848;2024-03-02T03:14:48;8.40;99.90
42019;DHT22;27703;51.980;5.848;2024-03-02T03:17:13;8.30;99.90
42019;DHT22;27703;51.980;5.848;2024-03-02T03:19:39;8.30;99.90
42019;DHT22;27703;51.980;5.848;2024-03-02T03:22:04;8.30;99.90
42019;DHT22;27703;51.980;5.848;2024-03-02T03:24:30;8.30;99.90
42019;DHT22;27703;51.980;5.848;2024-03-02T03:26:55;8.20;99.90
42019;DHT22;27703;51.980;5.848;2024-03-02T03:29:21;8.20;99.90
42019;DHT22;27703;51.980;5.848;2024-03-02T03:31:46;8.20;99.90
42019;DHT22;27703;51.980;5.848;2024-03-02T03:34:12;8.20;99.90
42019;DHT22;27703;51.980;5.848;2024-03-02T03:36:41;8.10;99.90
42019;DHT22;27703;51.980;5.848;2024-03-02T03:39:07;8.10;99.90
42019;DHT22;27703;51.980;5.848;2024-03-02T03:41:32;8.10;99.90
42019;DHT22;27703;51.980;5.848;2024-03-02T03:43:58;8.10;99.90
42019;DHT22;27703;51.980;5.848;2024-03-02T03:46:23;8.10;99.90
42019;DHT22;27703;51.980;5.848;2024-03-02T03:48:49;8.00;99.90
42019;DHT22;27703;51.980;5.848;2024-03-02T03:51:15;8.00;99.90
42019;DHT22;27703;51.980;5.848;2024-03-02T03:53:40;8.00;99.90
42019;DHT22;27703;51.980;5.848;2024-03-02T03:56:06;8.00;99.90
42019;DHT22;27703;51.980;5.848;2024-03-02T03:58:31;8.00;99.90
42019;DHT22;27703;51.980;5.848;2024-03-02T04:00:57;8.00;99.90
42019;DHT22;27703;51.980;5.848;2024-03-02T04:03:23;8.00;99.90
42019;DHT22;27703;51.980;5.848;2024-03-02T04:05:48;7.90;99.90
42019;DHT22;27703;51.980;5.848;2024-03-02T04:08:14;7.90;99.90
42019;DHT22;27703;51.980;5.848;2024-03-02T04:10:39;7.90;99.90
42019;DHT22;27703;51.980;5.848;2024-03-02T04:13:05;8.00;99.90
42019;DHT22;27703;51.980;5.848;2024-03-02T04:15:31;8.00;99.90
42019;DHT22;27703;51.980;5.848;2024-03-02T04:17:56;7.90;99.90
42019;DHT22;27703;51.980;5.848;2024-03-02T04:20:22;7.90;99.90
42019;DHT22;27703;51.980;5.848;2024-03-02T04:22:48;7.90;99.90
42019;DHT22;27703;51.980;5.848;2024-03-02T04:25:13;7.90;99.90
42019;DHT22;27703;51.980;5.848;2024-03-02T04:27:39;7.90;99.90
42019;DHT22;27703;51.980;5.848;2024-03-02T04:30:05;8.00;99.90
42019;DHT22;27703;51.980;5.848;2024-03-02T04:32:31;7.90;99.90
42019;DHT22;27703;51.980;5.848;2024-03-02T04:34:57;7.90;99.90
42019;DHT22;27703;51.980;5.848;2024-03-02T04:37:22;7.90;99.90
42019;DHT22;27703;51.980;5.848;2024-03-02T04:39:48;7.90;99.90
42019;DHT22;27703;51.980;5.848;2024-03-02T04:42:13;7.90;99.90
42019;DHT22;27703;51.980;5.848;2024-03-02T04:44:39;7.90;99.90
42019;DHT22;27703;51.980;5.848;2024-03-02T04:47:05;7.80;99.90
42019;DHT22;27703;51.980;5.848;2024-03-02T04:49:30;7.80;99.90
42019;DHT22;27703;51.980;5.848;2024-03-02T04:51:56;7.70;99.90
42019;DHT22;27703;51.980;5.848;2024-03-02T04:54:25;7.70;99.90
42019;DHT22;27703;51.980;5.848;2024-03-02T04:56:50;7.70;99.90
42019;DHT22;27703;51.980;5.848;2024-03-02T04:59:16;7.60;99.90
42019;DHT22;27703;51.980;5.848;2024-03-02T05:01:43;7.60;99.90
42019;DHT22;27703;51.980;5.848;2024-03-02T05:04:09;7.60;99.90
42019;DHT22;27703;51.980;5.848;2024-03-02T05:06:39;7.60;99.90
42019;DHT22;27703;51.980;5.848;2024-03-02T05:09:05;7.60;99.90
42019;DHT22;27703;51.980;5.848;2024-03-02T05:11:31;7.50;99.90
42019;DHT22;27703;51.980;5.848;2024-03-02T05:14:05;7.50;99.90
42019;DHT22;27703;51.980;5.848;2024-03-02T05:16:35;7.50;99.90
42019;DHT22;27703;51.980;5.848;2024-03-02T05:19:02;7.50;99.90
42019;DHT22;27703;51.980;5.848;2024-03-02T05:21:27;7.50;99.90
42019;DHT22;27703;51.980;5.848;2024-03-02T05:23:53;7.50;99.90
42019;DHT22;27703;51.980;5.848;2024-03-02T05:26:18;7.40;99.90
42019;DHT22;27703;51.980;5.848;2024-03-02T05:28:44;7.40;99.90
42019;DHT22;27703;51.980;5.848;2024-03-02T05:31:15;7.40;99.90
42019;DHT22;27703;51.980;5.848;2024-03-02T05:33:40;7.40;99.90
42019;DHT22;27703;51.980;5.848;2024-03-02T05:36:06;7.40;99.90
42019;DHT22;27703;51.980;5.848;2024-03-02T05:38:34;7.40;99.90
42019;DHT22;27703;51.980;5.848;2024-03-02T05:41:00;7.40;99.90
42019;DHT22;27703;51.980;5.848;2024-03-02T05:43:25;7.30;99.90
42019;DHT22;27703;51.980;5.848;2024-03-02T05:45:51;7.30;99.90
42019;DHT22;27703;51.980;5.848;2024-03-02T05:48:16;7.30;99.90
42019;DHT22;27703;51.980;5.848;2024-03-02T05:50:42;7.20;99.90
42019;DHT22;27703;51.980;5.848;2024-03-02T05:53:07;7.20;99.90
42019;DHT22;27703;51.980;5.848;2024-03-02T05:55:33;7.20;99.90
42019;DHT22;27703;51.980;5.848;2024-03-02T05:57:58;7.10;99.90
42019;DHT22;27703;51.980;5.848;2024-03-02T06:00:43;7.10;99.90
42019;DHT22;27703;51.980;5.848;2024-03-02T06:03:08;7.10;99.90
42019;DHT22;27703;51.980;5.848;2024-03-02T06:05:34;7.10;99.90
42019;DHT22;27703;51.980;5.848;2024-03-02T06:08:00;7.10;99.90
42019;DHT22;27703;51.980;5.848;2024-03-02T06:10:25;7.10;99.90
42019;DHT22;27703;51.980;5.848;2024-03-02T06:12:51;7.10;99.90
42019;DHT22;27703;51.980;5.848;2024-03-02T06:15:16;7.10;99.90
42019;DHT22;27703;51.980;5.848;2024-03-02T06:17:42;7.10;99.90
42019;DHT22;27703;51.980;5.848;2024-03-02T06:20:08;7.10;99.90
42019;DHT22;27703;51.980;5.848;2024-03-02T06:22:34;7.10;99.90
42019;DHT22;27703;51.980;5.848;2024-03-02T06:25:00;7.10;99.90
42019;DHT22;27703;51.980;5.848;2024-03-02T06:27:25;7.00;99.90
42019;DHT22;27703;51.980;5.848;2024-03-02T06:29:51;7.00;99.90
42019;DHT22;27703;51.980;5.848;2024-03-02T06:32:17;7.00;99.90
42019;DHT22;27703;51.980;5.848;2024-03-02T06:34:42;7.00;99.90
42019;DHT22;27703;51.980;5.848;2024-03-02T06:37:08;6.90;99.90
42019;DHT22;27703;51.980;5.848;2024-03-02T06:39:33;7.00;99.90
42019;DHT22;27703;51.980;5.848;2024-03-02T06:42:00;7.00;99.90
42019;DHT22;27703;51.980;5.848;2024-03-02T06:44:25;7.00;99.90
42019;DHT22;27703;51.980;5.848;2024-03-02T06:46:51;7.00;99.90
42019;DHT22;27703;51.980;5.848;2024-03-02T06:49:16;7.00;99.90
42019;DHT22;27703;51.980;5.848;2024-03-02T06:51:43;7.00;99.90
42019;DHT22;27703;51.980;5.848;2024-03-02T06:54:09;7.00;99.90
42019;DHT22;27703;51.980;5.848;2024-03-02T06:56:34;7.00;99.90
42019;DHT22;27703;51.980;5.848;2024-03-02T06:59:00;7.00;99.90
42019;DHT22;27703;51.980;5.848;2024-03-02T07:01:25;7.10;99.90
42019;DHT22;27703;51.980;5.848;2024-03-02T07:03:51;7.10;99.90
42019;DHT22;27703;51.980;5.848;2024-03-02T07:06:17;7.20;99.90
42019;DHT22;27703;51.980;5.848;2024-03-02T07:08:43;7.20;99.90
42019;DHT22;27703;51.980;5.848;2024-03-02T07:11:08;7.30;99.90
42019;DHT22;27703;51.980;5.848;2024-03-02T07:13:35;7.30;99.90
42019;DHT22;27703;51.980;5.848;2024-03-02T07:16:00;7.40;99.90
42019;DHT22;27703;51.980;5.848;2024-03-02T07:18:30;7.40;99.90
42019;DHT22;27703;51.980;5.848;2024-03-02T07:21:10;7.40;99.90
42019;DHT22;27703;51.980;5.848;2024-03-02T07:23:36;7.40;99.90
42019;DHT22;27703;51.980;5.848;2024-03-02T07:26:01;7.50;99.90
42019;DHT22;27703;51.980;5.848;2024-03-02T07:28:27;7.50;99.90
42019;DHT22;27703;51.980;5.848;2024-03-02T07:31:00;7.50;99.90
42019;DHT22;27703;51.980;5.848;2024-03-02T07:33:26;7.60;99.90
42019;DHT22;27703;51.980;5.848;2024-03-02T07:35:52;7.60;99.90
42019;DHT22;27703;51.980;5.848;2024-03-02T07:38:18;7.70;99.90
42019;DHT22;27703;51.980;5.848;2024-03-02T07:40:43;7.80;99.90
42019;DHT22;27703;51.980;5.848;2024-03-02T07:43:09;7.90;99.90
42019;DHT22;27703;51.980;5.848;2024-03-02T07:45:35;8.00;99.90
42019;DHT22;27703;51.980;5.848;2024-03-02T07:48:03;8.10;99.90
42019;DHT22;27703;51.980;5.848;2024-03-02T07:50:29;8.10;99.90
42019;DHT22;27703;51.980;5.848;2024-03-02T07:52:56;8.20;99.90
42019;DHT22;27703;51.980;5.848;2024-03-02T07:55:21;8.20;99.90
42019;DHT22;27703;51.980;5.848;2024-03-02T07:57:49;8.30;99.90
42019;DHT22;27703;51.980;5.848;2024-03-02T08:00:22;8.40;99.90
42019;DHT22;27703;51.980;5.848;2024-03-02T08:02:48;8.50;99.90
42019;DHT22;27703;51.980;5.848;2024-03-02T08:05:16;8.60;99.90
42019;DHT22;27703;51.980;5.848;2024-03-02T08:07:43;8.70;99.90
42019;DHT22;27703;51.980;5.848;2024-03-02T08:10:09;8.80;99.90
42019;DHT22;27703;51.980;5.848;2024-03-02T08:12:34;8.90;99.90
42019;DHT22;27703;51.980;5.848;2024-03-02T08:15:00;9.00;99.90
42019;DHT22;27703;51.980;5.848;2024-03-02T08:17:26;9.10;99.90
42019;DHT22;27703;51.980;5.848;2024-03-02T08:19:51;9.20;99.90
42019;DHT22;27703;51.980;5.848;2024-03-02T08:22:17;9.40;99.90
42019;DHT22;27703;51.980;5.848;2024-03-02T08:24:43;9.50;99.90
42019;DHT22;27703;51.980;5.848;2024-03-02T08:27:08;9.50;99.90
42019;DHT22;27703;51.980;5.848;2024-03-02T08:29:34;9.60;99.90
42019;DHT22;27703;51.980;5.848;2024-03-02T08:32:00;9.60;99.90
42019;DHT22;27703;51.980;5.848;2024-03-02T08:34:26;9.60;99.90
42019;DHT22;27703;51.980;5.848;2024-03-02T08:36:51;9.60;99.90
42019;DHT22;27703;51.980;5.848;2024-03-02T08:39:17;9.60;99.90
42019;DHT22;27703;51.980;5.848;2024-03-02T08:41:45;9.60;99.90
42019;DHT22;27703;51.980;5.848;2024-03-02T08:44:12;9.60;99.90
42019;DHT22;27703;51.980;5.848;2024-03-02T08:46:38;9.60;99.90
42019;DHT22;27703;51.980;5.848;2024-03-02T08:49:04;9.70;99.90
42019;DHT22;27703;51.980;5.848;2024-03-02T08:51:30;9.60;99.90
42019;DHT22;27703;51.980;5.848;2024-03-02T08:53:55;9.60;99.90
42019;DHT22;27703;51.980;5.848;2024-03-02T08:56:21;9.60;99.90
42019;DHT22;27703;51.980;5.848;2024-03-02T08:58:49;9.60;99.90
42019;DHT22;27703;51.980;5.848;2024-03-02T09:01:15;9.70;99.90
42019;DHT22;27703;51.980;5.848;2024-03-02T09:03:42;9.80;99.90
42019;DHT22;27703;51.980;5.848;2024-03-02T09:06:10;9.90;99.90
42019;DHT22;27703;51.980;5.848;2024-03-02T09:08:35;9.90;99.90
42019;DHT22;27703;51.980;5.848;2024-03-02T09:11:02;10.00;99.90
42019;DHT22;27703;51.980;5.848;2024-03-02T09:13:29;10.00;99.90
42019;DHT22;27703;51.980;5.848;2024-03-02T09:15:54;10.00;99.90
42019;DHT22;27703;51.980;5.848;2024-03-02T09:18:22;10.10;99.90
42019;DHT22;27703;51.980;5.848;2024-03-02T09:20:48;10.10;99.90
42019;DHT22;27703;51.980;5.848;2024-03-02T09:23:13;10.20;99.90
42019;DHT22;27703;51.980;5.848;2024-03-02T09:25:39;10.30;99.90
42019;DHT22;27703;51.980;5.848;2024-03-02T09:28:04;10.30;99.90
42019;DHT22;27703;51.980;5.848;2024-03-02T09:30:30;10.30;99.90
42019;DHT22;27703;51.980;5.848;2024-03-02T09:32:56;10.30;99.90
42019;DHT22;27703;51.980;5.848;2024-03-02T09:35:21;10.30;99.90
42019;DHT22;27703;51.980;5.848;2024-03-02T09:37:47;10.20;99.90
42019;DHT22;27703;51.980;5.848;2024-03-02T09:40:13;10.20;99.90
42019;DHT22;27703;51.980;5.848;2024-03-02T09:42:40;10.20;99.90
42019;DHT22;27703;51.980;5.848;2024-03-02T09:45:06;10.30;99.90
42019;DHT22;27703;51.980;5.848;2024-03-02T09:47:32;10.40;99.90
42019;DHT22;27703;51.980;5.848;2024-03-02T09:49:58;10.50;99.90
42019;DHT22;27703;51.980;5.848;2024-03-02T09:52:24;10.60;99.90
42019;DHT22;27703;51.980;5.848;2024-03-02T09:54:50;10.60;99.90
42019;DHT22;27703;51.980;5.848;2024-03-02T09:57:15;10.70;99.90
42019;DHT22;27703;51.980;5.848;2024-03-02T09:59:41;10.70;99.90
42019;DHT22;27703;51.980;5.848;2024-03-02T10:02:07;10.80;99.90
42019;DHT22;27703;51.980;5.848;2024-03-02T10:04:33;10.80;99.90
42019;DHT22;27703;51.980;5.848;2024-03-02T10:07:11;10.90;99.90
42019;DHT22;27703;51.980;5.848;2024-03-02T10:09:37;11.00;99.90
42019;DHT22;27703;51.980;5.848;2024-03-02T10:12:07;11.10;99.90
42019;DHT22;27703;51.980;5.848;2024-03-02T10:14:34;11.20;99.90
42019;DHT22;27703;51.980;5.848;2024-03-02T10:17:07;11.20;99.90
42019;DHT22;27703;51.980;5.848;2024-03-02T10:19:34;11.30;99.90
42019;DHT22;27703;51.980;5.848;2024-03-02T10:22:04;11.40;99.90
42019;DHT22;27703;51.980;5.848;2024-03-02T10:24:42;11.40;99.90
42019;DHT22;27703;51.980;5.848;2024-03-02T10:27:14;11.50;99.90
42019;DHT22;27703;51.980;5.848;2024-03-02T10:29:40;11.60;99.90
42019;DHT22;27703;51.980;5.848;2024-03-02T10:32:09;11.60;99.90
42019;DHT22;27703;51.980;5.848;2024-03-02T10:34:36;11.80;99.90
42019;DHT22;27703;51.980;5.848;2024-03-02T10:37:01;11.90;99.90
42019;DHT22;27703;51.980;5.848;2024-03-02T10:39:28;11.90;99.90
42019;DHT22;27703;51.980;5.848;2024-03-02T10:41:55;11.90;99.90
42019;DHT22;27703;51.980;5.848;2024-03-02T10:44:22;11.90;99.90
42019;DHT22;27703;51.980;5.848;2024-03-02T10:46:49;12.00;99.90
42019;DHT22;27703;51.980;5.848;2024-03-02T10:49:16;12.10;99.90
42019;DHT22;27703;51.980;5.848;2024-03-02T10:51:43;12.30;99.90
42019;DHT22;27703;51.980;5.848;2024-03-02T10:54:08;12.40;99.90
42019;DHT22;27703;51.980;5.848;2024-03-02T10:56:39;12.50;99.90
42019;DHT22;27703;51.980;5.848;2024-03-02T10:59:26;12.50;99.90
42019;DHT22;27703;51.980;5.848;2024-03-02T11:01:56;12.50;99.90
42019;DHT22;27703;51.980;5.848;2024-03-02T11:04:29;12.60;99.90
42019;DHT22;27703;51.980;5.848;2024-03-02T11:07:08;12.80;99.90
42019;DHT22;27703;51.980;5.848;2024-03-02T11:09:38;12.90;99.90
42019;DHT22;27703;51.980;5.848;2024-03-02T11:12:44;13.10;99.90
42019;DHT22;27703;51.980;5.848;2024-03-02T11:15:17;13.50;99.90
42019;DHT22;27703;51.980;5.848;2024-03-02T11:17:46;13.70;99.90
42019;DHT22;27703;51.980;5.848;2024-03-02T11:20:12;13.80;99.90
42019;DHT22;27703;51.980;5.848;2024-03-02T11:22:38;13.70;99.90
42019;DHT22;27703;51.980;5.848;2024-03-02T11:25:04;13.70;99.90
42019;DHT22;27703;51.980;5.848;2024-03-02T11:28:00;13.70;99.90
42019;DHT22;27703;51.980;5.848;2024-03-02T11:33:04;13.60;99.90
42019;DHT22;27703;51.980;5.848;2024-03-02T11:35:38;13.50;99.90
42019;DHT22;27703;51.980;5.848;2024-03-02T11:38:07;13.60;99.90
42019;DHT22;27703;51.980;5.848;2024-03-02T11:40:32;13.60;99.90
42019;DHT22;27703;51.980;5.848;2024-03-02T11:43:01;13.50;99.90
42019;DHT22;27703;51.980;5.848;2024-03-02T11:45:27;13.60;99.90
42019;DHT22;27703;51.980;5.848;2024-03-02T11:47:57;13.80;99.90
42019;DHT22;27703;51.980;5.848;2024-03-02T11:50:40;13.90;99.90
42019;DHT22;27703;51.980;5.848;2024-03-02T11:53:07;14.00;99.90
42019;DHT22;27703;51.980;5.848;2024-03-02T11:55:37;14.00;99.90
42019;DHT22;27703;51.980;5.848;2024-03-02T11:58:04;14.10;99.90
42019;DHT22;27703;51.980;5.848;2024-03-02T12:00:29;14.10;99.90
42019;DHT22;27703;51.980;5.848;2024-03-02T12:03:09;14.20;99.90
42019;DHT22;27703;51.980;5.848;2024-03-02T12:05:35;14.30;99.90
42019;DHT22;27703;51.980;5.848;2024-03-02T12:08:04;14.30;99.90
42019;DHT22;27703;51.980;5.848;2024-03-02T12:10:30;14.30;99.90
42019;DHT22;27703;51.980;5.848;2024-03-02T12:12:57;14.40;99.90
42019;DHT22;27703;51.980;5.848;2024-03-02T12:15:27;14.50;99.90
42019;DHT22;27703;51.980;5.848;2024-03-02T12:17:54;14.60;99.80
42019;DHT22;27703;51.980;5.848;2024-03-02T12:20:20;14.60;99.90
42019;DHT22;27703;51.980;5.848;2024-03-02T12:22:46;14.60;99.90
42019;DHT22;27703;51.980;5.848;2024-03-02T12:25:12;14.70;99.90
42019;DHT22;27703;51.980;5.848;2024-03-02T12:27:39;14.80;99.10
42019;DHT22;27703;51.980;5.848;2024-03-02T12:30:06;14.80;98.80
42019;DHT22;27703;51.980;5.848;2024-03-02T12:32:33;14.80;98.50
42019;DHT22;27703;51.980;5.848;2024-03-02T12:34:59;14.90;99.00
42019;DHT22;27703;51.980;5.848;2024-03-02T12:37:26;15.00;99.00
42019;DHT22;27703;51.980;5.848;2024-03-02T12:39:53;15.00;98.90
42019;DHT22;27703;51.980;5.848;2024-03-02T12:42:18;15.00;99.10
42019;DHT22;27703;51.980;5.848;2024-03-02T12:44:44;14.90;98.40
42019;DHT22;27703;51.980;5.848;2024-03-02T12:47:09;14.80;98.70
42019;DHT22;27703;51.980;5.848;2024-03-02T12:49:35;14.70;97.70
42019;DHT22;27703;51.980;5.848;2024-03-02T12:52:01;14.60;98.00
42019;DHT22;27703;51.980;5.848;2024-03-02T12:54:27;14.70;98.20
42019;DHT22;27703;51.980;5.848;2024-03-02T12:56:53;14.80;98.00
42019;DHT22;27703;51.980;5.848;2024-03-02T12:59:23;14.90;97.60
42019;DHT22;27703;51.980;5.848;2024-03-02T13:01:55;15.00;97.30
42019;DHT22;27703;51.980;5.848;2024-03-02T13:04:24;15.10;97.40
42019;DHT22;27703;51.980;5.848;2024-03-02T13:06:51;15.10;96.60
42019;DHT22;27703;51.980;5.848;2024-03-02T13:09:17;14.90;96.50
42019;DHT22;27703;51.980;5.848;2024-03-02T13:11:45;14.90;97.20
42019;DHT22;27703;51.980;5.848;2024-03-02T13:14:10;15.00;97.50
42019;DHT22;27703;51.980;5.848;2024-03-02T13:16:40;15.20;97.60
42019;DHT22;27703;51.980;5.848;2024-03-02T13:19:12;15.60;96.90
42019;DHT22;27703;51.980;5.848;2024-03-02T13:21:38;16.30;96.90
42019;DHT22;27703;51.980;5.848;2024-03-02T13:24:04;17.00;95.40
42019;DHT22;27703;51.980;5.848;2024-03-02T13:26:30;17.10;95.10
42019;DHT22;27703;51.980;5.848;2024-03-02T13:28:56;16.90;94.70
42019;DHT22;27703;51.980;5.848;2024-03-02T13:31:21;16.70;95.70
42019;DHT22;27703;51.980;5.848;2024-03-02T13:33:47;16.70;95.70
42019;DHT22;27703;51.980;5.848;2024-03-02T13:36:13;16.30;96.00
42019;DHT22;27703;51.980;5.848;2024-03-02T13:38:38;16.60;96.40
42019;DHT22;27703;51.980;5.848;2024-03-02T13:41:04;17.00;95.80
42019;DHT22;27703;51.980;5.848;2024-03-02T13:43:30;16.90;95.90
42019;DHT22;27703;51.980;5.848;2024-03-02T13:46:00;16.70;96.10
42019;DHT22;27703;51.980;5.848;2024-03-02T13:48:27;16.50;96.30
42019;DHT22;27703;51.980;5.848;2024-03-02T13:50:52;16.40;96.40
42019;DHT22;27703;51.980;5.848;2024-03-02T13:53:18;16.20;96.20
42019;DHT22;27703;51.980;5.848;2024-03-02T13:55:44;16.10;96.50
42019;DHT22;27703;51.980;5.848;2024-03-02T13:58:10;16.00;96.70
42019;DHT22;27703;51.980;5.848;2024-03-02T14:00:37;15.90;96.40
42019;DHT22;27703;51.980;5.848;2024-03-02T14:03:03;15.80;96.50
42019;DHT22;27703;51.980;5.848;2024-03-02T14:05:29;16.00;96.40
42019;DHT22;27703;51.980;5.848;2024-03-02T14:07:54;16.00;96.30
42019;DHT22;27703;51.980;5.848;2024-03-02T14:10:20;16.00;96.20
42019;DHT22;27703;51.980;5.848;2024-03-02T14:12:47;15.80;96.40
42019;DHT22;27703;51.980;5.848;2024-03-02T14:15:13;15.50;96.60
42019;DHT22;27703;51.980;5.848;2024-03-02T14:17:39;15.20;97.00
42019;DHT22;27703;51.980;5.848;2024-03-02T14:20:05;15.00;97.20
42019;DHT22;27703;51.980;5.848;2024-03-02T14:22:31;14.90;97.30
42019;DHT22;27703;51.980;5.848;2024-03-02T14:24:57;14.80;97.60
42019;DHT22;27703;51.980;5.848;2024-03-02T14:27:22;14.80;97.60
42019;DHT22;27703;51.980;5.848;2024-03-02T14:29:48;14.80;97.80
42019;DHT22;27703;51.980;5.848;2024-03-02T14:32:14;14.90;97.60
42019;DHT22;27703;51.980;5.848;2024-03-02T14:34:39;15.00;97.60
42019;DHT22;27703;51.980;5.848;2024-03-02T14:37:05;15.10;97.60
42019;DHT22;27703;51.980;5.848;2024-03-02T14:39:30;15.10;97.20
42019;DHT22;27703;51.980;5.848;2024-03-02T14:42:01;15.10;97.00
42019;DHT22;27703;51.980;5.848;2024-03-02T14:44:27;15.00;96.80
42019;DHT22;27703;51.980;5.848;2024-03-02T14:46:52;15.00;96.80
42019;DHT22;27703;51.980;5.848;2024-03-02T14:49:18;15.00;97.00
42019;DHT22;27703;51.980;5.848;2024-03-02T14:51:44;15.10;97.00
42019;DHT22;27703;51.980;5.848;2024-03-02T14:54:09;15.00;96.90
42019;DHT22;27703;51.980;5.848;2024-03-02T14:56:35;15.10;97.10
42019;DHT22;27703;51.980;5.848;2024-03-02T14:59:00;15.20;96.90
42019;DHT22;27703;51.980;5.848;2024-03-02T15:01:26;15.50;96.80
42019;DHT22;27703;51.980;5.848;2024-03-02T15:03:52;15.70;96.60
42019;DHT22;27703;51.980;5.848;2024-03-02T15:06:18;15.60;96.60
42019;DHT22;27703;51.980;5.848;2024-03-02T15:08:43;15.70;96.70
42019;DHT22;27703;51.980;5.848;2024-03-02T15:11:11;15.70;97.00
42019;DHT22;27703;51.980;5.848;2024-03-02T15:13:37;15.50;97.20
42019;DHT22;27703;51.980;5.848;2024-03-02T15:16:03;15.40;97.20
42019;DHT22;27703;51.980;5.848;2024-03-02T15:18:29;15.20;97.40
42019;DHT22;27703;51.980;5.848;2024-03-02T15:20:54;15.20;98.00
42019;DHT22;27703;51.980;5.848;2024-03-02T15:23:20;15.20;97.70
42019;DHT22;27703;51.980;5.848;2024-03-02T15:25:45;15.40;97.90
42019;DHT22;27703;51.980;5.848;2024-03-02T15:28:11;15.50;98.00
42019;DHT22;27703;51.980;5.848;2024-03-02T15:30:37;15.50;97.80
42019;DHT22;27703;51.980;5.848;2024-03-02T15:33:03;15.40;98.10
42019;DHT22;27703;51.980;5.848;2024-03-02T15:35:29;15.20;97.90
42019;DHT22;27703;51.980;5.848;2024-03-02T15:37:54;15.10;98.10
42019;DHT22;27703;51.980;5.848;2024-03-02T15:40:20;14.90;98.50
42019;DHT22;27703;51.980;5.848;2024-03-02T15:42:46;15.00;98.60
42019;DHT22;27703;51.980;5.848;2024-03-02T15:45:11;14.90;98.60
42019;DHT22;27703;51.980;5.848;2024-03-02T15:47:37;14.90;98.80